International Virtual Aviation Organisation

Russian Federation and Kazakhstan MCD

 

Карточка аэропорта UWUU

Внимание!
Информация на этой странице в стадии наполнения.
Если вы не увидели какой-то информации, или заметили неточность - пожалуйста сообщите нам!
Спасибо!
Команда RU-STAFF
Название аэропортаУфа
Название аэропорта (англ.)Ufa
Превышение449 ft. (136.9 m.)
Координаты54°33.6', 55°52.2'
Высота перехода900m
Эшелон переходаQFE>=749mm:FL050; QFE<749=>722:FL060; QFE<722:FL070
Коды ответчика6730-6731
Зона ОрВДСамара РПИ (UWWW)
Данные METARUWUU 191600Z 12003MPS 9999 SCT040CB 25/19 Q1022 R14R/0///60 NOSIG
Проноз погоды (TAF)UWUU 191357Z 1915/2015 12003G08MPS 9999 BKN020 TEMPO 1915/2015 21005G13MPS 3100 -TSRAGR BKN011CB
NOTAMshow/hide NOTAM
AWOS   TABLE

Информация о ВПП

ВПП Длина ВПП (м.) Покрытие Курс ВПП Частота ILS
14R3765Бетон138110.3
14L2516Асфальтобетон138108.3
32R2516Асфальтобетон318109.1
32L3765Бетон318 

Диспетчерские позиции

Позывной Наименование органа УВД Частота
UWUU_GNDУфа-Руление119.000
UWUU_TWRУфа-Старт120.900
UWUU_R_APPУфа-Круг124.000
UWUU_APPУфа-Подход126.000



Спутниковое изображение